This is the latest recevied weather packets stored in our database for station/object KD8OZS. If no packets are shown the sender has not sent any weather packets the latest 10 day(s).
| Time | Temp. | Humidity | Pressure | Rain* | Wind** | Luminosity | Snow |
|---|---|---|---|---|---|---|---|
| 1788025003 | 26.67° C | 58% | 1015.5 hPa | 0 mm | - | 837 W/m² | - |
| 1788024698 | 26.11° C | 59% | 1015.7 hPa | 0 mm | - | 772 W/m² | - |
| 1788024393 | 25.56° C | 56% | 1015.9 hPa | 0 mm | - | 129 W/m² | - |
| 1788024089 | 25.56° C | 60% | 1015.8 hPa | 0 mm | - | 168 W/m² | - |
| 1788023784 | 25.56° C | 59% | 1016.1 hPa | 0 mm | - | 375 W/m² | - |
| 1788023479 | 25.56° C | 57% | 1016.3 hPa | 0 mm | - | 99 W/m² | - |
| 1788023175 | 25.56° C | 57% | 1016.2 hPa | 0 mm | - | 369 W/m² | - |
| 1788022874 | 25.56° C | 59% | 1016.1 hPa | 0 mm | - | 167 W/m² | - |
| 1788022571 | 25° C | 53% | 1016.5 hPa | 0 mm | - | 92 W/m² | - |
| 1788022267 | 25° C | 55% | 1016.6 hPa | 0 mm | - | 271 W/m² | - |
| 1788021965 | 25° C | 56% | 1016.5 hPa | 0 mm | - | 124 W/m² | - |
| 1788021660 | 24.44° C | 59% | 1016.4 hPa | 0 mm | - | 215 W/m² | - |
| 1788021358 | 25° C | 58% | 1016.7 hPa | 0 mm | - | 176 W/m² | - |
| 1788021053 | 25° C | 61% | 1016.5 hPa | 0 mm | - | 269 W/m² | - |
| 1788020749 | 25° C | 58% | 1016.7 hPa | 0 mm | - | 230 W/m² | - |
| 1788020443 | 24.44° C | 56% | 1016.8 hPa | 0 mm | - | 275 W/m² | - |
| 1788020139 | 24.44° C | 61% | 1016.6 hPa | 0 mm | - | 84 W/m² | - |
| 1788019833 | 24.44° C | 61% | 1016.5 hPa | 0 mm | - | 192 W/m² | - |
| 1788019528 | 24.44° C | 60% | 1016.7 hPa | 0 mm | - | 83 W/m² | - |
| 1788019227 | 23.89° C | 58% | 1016.7 hPa | 0 mm | - | 238 W/m² | - |
| 1788018925 | 24.44° C | 58% | 1016.5 hPa | 0 mm | - | 451 W/m² | - |
| 1788018621 | 23.89° C | 63% | 1016.5 hPa | 0 mm | - | 143 W/m² | - |
| 1788018320 | 23.89° C | 62% | 1016.6 hPa | 0 mm | - | 131 W/m² | - |
| 1788018015 | 23.89° C | 59% | 1016.6 hPa | 0 mm | - | 156 W/m² | - |
| 1788017712 | 23.89° C | 57% | 1016.5 hPa | 0 mm | - | 140 W/m² | - |
* Rain latest hour (hover to see other rain measurements)
** Current wind speed in m/s (hover to see current wind gust speed)